createdAt,value
2022-12-17T00:00:49.472Z,100.00
2022-12-17T00:03:35.257Z,100.00
2022-12-17T00:06:20.524Z,100.00
2022-12-17T00:09:05.414Z,100.00
2022-12-17T00:11:50.450Z,100.00
2022-12-17T00:14:35.703Z,100.00
2022-12-17T00:17:20.700Z,100.00
2022-12-17T00:20:05.522Z,100.00
2022-12-17T00:22:50.266Z,100.00
2022-12-17T00:25:35.194Z,100.00
2022-12-17T00:28:20.050Z,100.00
2022-12-17T00:31:10.594Z,100.00
2022-12-17T00:33:55.499Z,100.00
2022-12-17T00:36:41.100Z,100.00
2022-12-17T00:39:26.622Z,100.00
2022-12-17T00:42:11.445Z,100.00
2022-12-17T00:44:56.362Z,100.00
2022-12-17T00:47:41.033Z,100.00
2022-12-17T00:50:26.791Z,100.00
2022-12-17T00:53:12.680Z,100.00
2022-12-17T00:55:58.099Z,100.00
2022-12-17T00:58:43.015Z,100.00
2022-12-17T01:01:28.519Z,100.00
2022-12-17T01:04:13.648Z,100.00
2022-12-17T01:06:58.460Z,100.00
2022-12-17T01:09:43.334Z,100.00
2022-12-17T01:12:28.254Z,100.00
2022-12-17T01:15:13.158Z,100.00
2022-12-17T01:17:58.135Z,100.00
2022-12-17T01:20:42.968Z,100.00
2022-12-17T01:23:28.450Z,100.00
2022-12-17T01:26:14.264Z,100.00
2022-12-17T01:28:59.536Z,100.00
2022-12-17T01:31:44.613Z,100.00
2022-12-17T01:34:29.773Z,100.00
2022-12-17T01:37:15.181Z,100.00
2022-12-17T01:40:00.055Z,100.00
2022-12-17T01:42:45.077Z,100.00
2022-12-17T01:45:32.132Z,100.00
2022-12-17T01:48:23.654Z,100.00
2022-12-17T01:51:11.866Z,100.00
2022-12-17T01:54:02.215Z,100.00
2022-12-17T01:56:47.561Z,100.00
2022-12-17T01:59:33.361Z,100.00
2022-12-17T02:02:18.889Z,100.00
2022-12-17T02:05:04.242Z,100.00
2022-12-17T02:08:14.140Z,100.00
2022-12-17T02:11:21.133Z,100.00
2022-12-17T02:14:40.898Z,100.00
2022-12-17T02:17:30.620Z,100.00
2022-12-17T02:20:21.927Z,100.00
2022-12-17T02:23:16.782Z,100.00
2022-12-17T02:26:04.617Z,100.00
2022-12-17T02:28:50.886Z,100.00
2022-12-17T02:31:36.917Z,100.00
2022-12-17T02:34:21.754Z,100.00
2022-12-17T02:37:06.723Z,100.00
2022-12-17T02:39:51.886Z,100.00
2022-12-17T02:42:44.078Z,100.00
2022-12-17T02:45:30.054Z,100.00
2022-12-17T02:48:15.510Z,100.00
2022-12-17T02:51:00.974Z,100.00
2022-12-17T02:53:45.800Z,100.00
2022-12-17T02:56:30.870Z,100.00
2022-12-17T02:59:16.403Z,100.00
2022-12-17T03:02:01.347Z,100.00
2022-12-17T03:04:46.719Z,100.00
2022-12-17T03:07:32.079Z,100.00
2022-12-17T03:10:16.770Z,100.00
2022-12-17T03:13:01.586Z,100.00
2022-12-17T03:15:46.334Z,100.00
2022-12-17T03:18:32.759Z,100.00
2022-12-17T03:21:17.448Z,100.00
2022-12-17T03:24:02.389Z,100.00
2022-12-17T03:26:47.036Z,100.00
2022-12-17T03:29:31.892Z,100.00
2022-12-17T03:32:16.595Z,100.00
2022-12-17T03:35:01.370Z,100.00
2022-12-17T03:37:46.332Z,100.00
2022-12-17T03:40:31.086Z,100.00
2022-12-17T03:43:16.490Z,100.00
2022-12-17T03:46:01.348Z,100.00
2022-12-17T03:48:46.478Z,100.00
2022-12-17T03:51:31.294Z,100.00
2022-12-17T03:54:16.068Z,100.00
2022-12-17T03:57:00.918Z,100.00
2022-12-17T03:59:45.751Z,100.00
2022-12-17T04:02:30.742Z,100.00
2022-12-17T04:05:20.088Z,100.00
2022-12-17T04:08:06.207Z,100.00
2022-12-17T04:11:07.993Z,100.00
2022-12-17T04:13:52.689Z,100.00
2022-12-17T04:16:37.614Z,100.00
2022-12-17T04:19:22.490Z,100.00
2022-12-17T04:22:07.300Z,100.00
2022-12-17T04:24:52.115Z,100.00
2022-12-17T04:27:37.020Z,100.00
2022-12-17T04:30:22.318Z,100.00
2022-12-17T04:33:07.157Z,100.00
2022-12-17T04:35:52.654Z,100.00
2022-12-17T04:38:37.409Z,100.00
2022-12-17T04:41:22.227Z,100.00
2022-12-17T04:44:07.571Z,100.00
2022-12-17T04:46:52.552Z,100.00
2022-12-17T04:49:37.442Z,100.00
2022-12-17T04:52:22.771Z,100.00
2022-12-17T04:55:07.789Z,100.00
2022-12-17T04:57:52.637Z,100.00
2022-12-17T05:00:37.994Z,100.00
2022-12-17T05:03:28.586Z,100.00
2022-12-17T05:06:13.622Z,100.00
2022-12-17T05:08:58.944Z,100.00
2022-12-17T05:11:43.823Z,100.00
2022-12-17T05:14:28.822Z,100.00
2022-12-17T05:17:14.186Z,100.00
2022-12-17T05:19:59.012Z,100.00
2022-12-17T05:22:43.881Z,100.00
2022-12-17T05:25:29.150Z,100.00
2022-12-17T05:28:14.002Z,100.00
2022-12-17T05:30:59.288Z,100.00
2022-12-17T05:33:44.357Z,100.00
2022-12-17T05:36:29.127Z,100.00
2022-12-17T05:39:14.530Z,100.00
2022-12-17T05:41:59.551Z,100.00
2022-12-17T05:44:44.324Z,100.00
2022-12-17T05:47:29.243Z,100.00
2022-12-17T05:50:13.964Z,100.00
2022-12-17T05:52:58.833Z,100.00
2022-12-17T05:55:43.616Z,100.00
2022-12-17T05:58:29.958Z,100.00
2022-12-17T06:01:16.244Z,100.00
2022-12-17T06:04:04.106Z,100.00
2022-12-17T06:06:49.410Z,100.00
2022-12-17T06:09:34.360Z,100.00
2022-12-17T06:12:19.732Z,100.00
2022-12-17T06:15:04.677Z,100.00
2022-12-17T06:17:49.774Z,100.00
2022-12-17T06:20:35.082Z,100.00
2022-12-17T06:23:29.652Z,100.00
2022-12-17T06:26:15.595Z,100.00
2022-12-17T06:29:01.362Z,100.00
2022-12-17T06:31:47.327Z,100.00
2022-12-17T06:34:32.467Z,100.00
2022-12-17T06:37:17.861Z,100.00
2022-12-17T06:40:02.760Z,100.00
2022-12-17T06:42:47.655Z,100.00
2022-12-17T06:45:32.495Z,100.00
2022-12-17T06:48:21.807Z,100.00
2022-12-17T06:51:07.054Z,100.00
2022-12-17T06:53:51.854Z,100.00
2022-12-17T06:56:36.754Z,100.00
2022-12-17T06:59:21.576Z,100.00
2022-12-17T07:02:06.532Z,100.00
2022-12-17T07:04:51.745Z,100.00
2022-12-17T07:07:36.535Z,100.00
2022-12-17T07:10:22.346Z,100.00
2022-12-17T07:13:07.314Z,100.00
2022-12-17T07:15:52.148Z,100.00
2022-12-17T07:18:36.959Z,100.00
2022-12-17T07:21:22.141Z,100.00
2022-12-17T07:24:07.467Z,100.00
2022-12-17T07:26:52.308Z,100.00
2022-12-17T07:29:37.363Z,100.00
2022-12-17T07:32:22.809Z,100.00
2022-12-17T07:35:07.608Z,100.00
2022-12-17T07:37:52.467Z,100.00
2022-12-17T07:40:47.830Z,100.00
2022-12-17T07:43:33.885Z,100.00
2022-12-17T07:46:19.144Z,100.00
2022-12-17T07:49:04.089Z,100.00
2022-12-17T07:51:48.869Z,100.00
2022-12-17T07:54:33.643Z,100.00
2022-12-17T07:57:18.385Z,100.00
2022-12-17T08:00:03.148Z,100.00
2022-12-17T08:02:48.104Z,100.00
2022-12-17T08:05:33.265Z,100.00
2022-12-17T08:08:26.235Z,100.00
2022-12-17T08:11:11.103Z,100.00
2022-12-17T08:13:56.425Z,100.00
2022-12-17T08:16:41.428Z,100.00
2022-12-17T08:19:26.522Z,100.00
2022-12-17T08:22:11.402Z,100.00
2022-12-17T08:24:56.162Z,100.00
2022-12-17T08:27:41.008Z,100.00
2022-12-17T08:30:26.457Z,100.00
2022-12-17T08:33:11.650Z,100.00
2022-12-17T08:35:57.190Z,100.00
2022-12-17T08:38:42.037Z,100.00
2022-12-17T08:41:26.949Z,100.00
2022-12-17T08:44:11.729Z,100.00
2022-12-17T08:46:56.632Z,100.00
2022-12-17T08:49:41.513Z,100.00
2022-12-17T08:52:26.291Z,100.00
2022-12-17T08:55:11.274Z,100.00
2022-12-17T08:57:56.206Z,100.00
2022-12-17T09:00:41.132Z,100.00
2022-12-17T09:03:26.968Z,100.00
2022-12-17T09:06:11.817Z,100.00
2022-12-17T09:08:56.509Z,100.00
2022-12-17T09:11:41.417Z,100.00
2022-12-17T09:14:26.699Z,100.00
2022-12-17T09:17:11.622Z,100.00
2022-12-17T09:19:56.875Z,100.00
2022-12-17T09:22:41.756Z,100.00
2022-12-17T09:25:27.219Z,100.00
2022-12-17T09:28:12.076Z,100.00
2022-12-17T09:30:56.983Z,100.00
2022-12-17T09:33:41.867Z,100.00
2022-12-17T09:36:27.245Z,100.00
2022-12-17T09:39:12.229Z,100.00
2022-12-17T09:42:09.494Z,100.00
2022-12-17T09:45:09.486Z,100.00
2022-12-17T09:48:06.881Z,100.00
2022-12-17T09:50:52.239Z,100.00
2022-12-17T09:53:42.713Z,100.00
2022-12-17T09:56:30.554Z,100.00
2022-12-17T09:59:16.083Z,100.00
2022-12-17T10:02:01.525Z,100.00
2022-12-17T10:04:55.923Z,100.00
2022-12-17T10:07:49.957Z,100.00
2022-12-17T10:10:45.008Z,100.00
2022-12-17T10:13:39.519Z,100.00
2022-12-17T10:16:58.351Z,100.00
2022-12-17T10:19:58.023Z,100.00
2022-12-17T10:22:43.460Z,100.00
2022-12-17T10:25:38.506Z,100.00
2022-12-17T10:28:32.033Z,100.00
2022-12-17T10:31:18.042Z,100.00
2022-12-17T10:34:04.258Z,100.00
2022-12-17T10:36:50.096Z,100.00
2022-12-17T10:39:44.620Z,100.00
2022-12-17T10:42:59.437Z,100.00
2022-12-17T10:45:45.660Z,100.00
2022-12-17T10:48:37.732Z,100.00
2022-12-17T10:51:24.081Z,100.00
2022-12-17T10:54:10.878Z,100.00
2022-12-17T10:56:56.274Z,100.00
2022-12-17T10:59:56.038Z,100.00
2022-12-17T11:02:47.004Z,100.00
2022-12-17T11:05:34.849Z,100.00
2022-12-17T11:08:21.928Z,100.00
2022-12-17T11:11:07.872Z,100.00
2022-12-17T11:13:58.761Z,100.00
2022-12-17T11:16:48.100Z,100.00
2022-12-17T11:20:08.328Z,89.45
2022-12-17T11:23:02.013Z,75.22
2022-12-17T11:26:03.072Z,71.83
2022-12-17T11:28:51.574Z,64.81
2022-12-17T11:31:36.555Z,63.52
2022-12-17T11:34:43.885Z,60.57
2022-12-17T11:37:31.806Z,57.29
2022-12-17T11:40:30.384Z,58.74
2022-12-17T11:43:41.574Z,60.80
2022-12-17T11:46:37.152Z,68.58
2022-12-17T11:49:37.541Z,78.66
2022-12-17T11:53:08.598Z,81.96
2022-12-17T11:56:17.143Z,89.79
2022-12-17T11:59:28.059Z,98.08
2022-12-17T12:02:42.346Z,97.67
2022-12-17T12:05:53.447Z,100.00
2022-12-17T12:09:26.099Z,100.00
2022-12-17T12:12:22.026Z,100.00
2022-12-17T12:15:09.791Z,100.00
2022-12-17T12:18:01.854Z,100.00
2022-12-17T12:20:55.830Z,100.00
2022-12-17T12:23:59.313Z,100.00
2022-12-17T12:27:06.523Z,87.10
2022-12-17T12:30:24.241Z,79.17
2022-12-17T12:33:28.314Z,90.30
2022-12-17T12:36:19.738Z,75.79
2022-12-17T12:39:08.622Z,68.27
2022-12-17T12:41:53.461Z,61.16
2022-12-17T12:44:54.015Z,56.40
2022-12-17T12:47:51.545Z,48.99
2022-12-17T12:50:48.945Z,51.63
2022-12-17T12:53:34.335Z,50.24
2022-12-17T12:56:19.099Z,46.00
2022-12-17T12:59:04.066Z,45.86
2022-12-17T13:01:55.238Z,47.24
2022-12-17T13:04:53.312Z,45.59
2022-12-17T13:07:30.632Z,44.24
2022-12-17T13:09:58.646Z,43.25
2022-12-17T13:12:44.751Z,41.99
2022-12-17T13:15:23.296Z,44.72
2022-12-17T13:18:02.276Z,44.24
2022-12-17T13:20:34.428Z,41.69
2022-12-17T13:23:28.810Z,42.55
2022-12-17T13:26:30.256Z,43.33
2022-12-17T13:29:11.955Z,43.57
2022-12-17T13:31:50.717Z,44.58
2022-12-17T13:34:26.099Z,45.50
2022-12-17T13:36:58.751Z,44.09
2022-12-17T13:39:40.479Z,44.88
2022-12-17T13:42:18.013Z,44.12
2022-12-17T13:44:46.746Z,45.15
2022-12-17T13:47:22.306Z,44.97
2022-12-17T13:50:32.201Z,45.66
2022-12-17T13:52:46.574Z,44.55
2022-12-17T13:55:25.962Z,45.38
2022-12-17T13:57:54.049Z,46.41
2022-12-17T14:00:27.372Z,46.50
2022-12-17T14:02:54.210Z,46.14
2022-12-17T14:05:37.366Z,44.74
2022-12-17T14:08:05.888Z,45.05
2022-12-17T14:10:32.913Z,46.80
2022-12-17T14:13:18.487Z,48.48
2022-12-17T14:15:49.879Z,49.80
2022-12-17T14:18:20.665Z,50.41
2022-12-17T14:20:49.682Z,54.54
2022-12-17T14:23:26.971Z,57.47
2022-12-17T14:25:54.037Z,61.09
2022-12-17T14:28:24.088Z,67.83
2022-12-17T14:31:25.097Z,71.82
2022-12-17T14:33:38.516Z,78.80
2022-12-17T14:36:23.703Z,89.41
2022-12-17T14:38:55.687Z,97.86
2022-12-17T14:41:44.036Z,100.00
2022-12-17T14:44:30.502Z,100.00
2022-12-17T14:47:20.596Z,100.00
2022-12-17T14:49:55.692Z,100.00
2022-12-17T14:52:41.294Z,100.00
2022-12-17T14:55:35.945Z,100.00
2022-12-17T14:58:11.557Z,100.00
2022-12-17T15:00:44.539Z,100.00
2022-12-17T15:03:23.373Z,100.00
2022-12-17T15:05:57.343Z,100.00
2022-12-17T15:08:23.973Z,100.00
2022-12-17T15:10:50.597Z,100.00
2022-12-17T15:13:17.118Z,100.00
2022-12-17T15:15:43.622Z,100.00
2022-12-17T15:18:12.893Z,100.00
2022-12-17T15:20:39.618Z,100.00
2022-12-17T15:23:06.364Z,100.00
2022-12-17T15:25:32.791Z,100.00
2022-12-17T15:27:59.235Z,100.00
2022-12-17T15:30:25.893Z,100.00
2022-12-17T15:32:52.427Z,100.00
2022-12-17T15:35:18.979Z,100.00
2022-12-17T15:37:45.505Z,100.00
2022-12-17T15:40:12.258Z,100.00
2022-12-17T15:43:02.911Z,100.00
2022-12-17T15:45:31.796Z,100.00
2022-12-17T15:47:58.367Z,100.00
2022-12-17T15:50:25.112Z,100.00
2022-12-17T15:52:51.604Z,100.00
2022-12-17T15:55:18.118Z,100.00
2022-12-17T15:57:44.730Z,100.00
2022-12-17T16:00:11.743Z,100.00
2022-12-17T16:02:38.699Z,100.00
2022-12-17T16:05:06.175Z,100.00
2022-12-17T16:07:33.860Z,100.00
2022-12-17T16:10:05.217Z,100.00
2022-12-17T16:12:32.742Z,100.00
2022-12-17T16:14:59.283Z,100.00
2022-12-17T16:17:25.890Z,100.00
2022-12-17T16:19:52.365Z,100.00
2022-12-17T16:22:18.996Z,100.00
2022-12-17T16:24:45.727Z,100.00
2022-12-17T16:27:13.109Z,100.00
2022-12-17T16:29:39.665Z,100.00
2022-12-17T16:32:06.463Z,100.00
2022-12-17T16:34:32.930Z,100.00
2022-12-17T16:37:01.223Z,100.00
2022-12-17T16:39:28.141Z,100.00
2022-12-17T16:41:54.667Z,100.00
2022-12-17T16:44:21.206Z,100.00
2022-12-17T16:46:47.908Z,100.00
2022-12-17T16:49:19.801Z,100.00
2022-12-17T16:51:52.499Z,100.00
2022-12-17T16:54:21.614Z,100.00
2022-12-17T16:56:48.164Z,100.00
2022-12-17T16:59:16.397Z,100.00
2022-12-17T17:01:46.431Z,100.00
2022-12-17T17:04:15.284Z,100.00
2022-12-17T17:06:47.840Z,100.00
2022-12-17T17:09:15.244Z,100.00
2022-12-17T17:11:43.945Z,100.00
2022-12-17T17:14:13.463Z,100.00
2022-12-17T17:16:40.120Z,100.00
2022-12-17T17:19:07.032Z,100.00
2022-12-17T17:21:36.539Z,100.00
2022-12-17T17:24:07.516Z,100.00
2022-12-17T17:26:34.720Z,100.00
2022-12-17T17:29:02.234Z,100.00
2022-12-17T17:32:01.048Z,100.00
2022-12-17T17:34:15.679Z,100.00
2022-12-17T17:36:42.530Z,100.00
2022-12-17T17:39:09.211Z,100.00
2022-12-17T17:41:36.720Z,100.00
2022-12-17T17:44:08.550Z,100.00
2022-12-17T17:46:35.402Z,100.00
2022-12-17T17:49:03.770Z,100.00
2022-12-17T17:52:07.810Z,100.00
2022-12-17T17:54:21.630Z,100.00
2022-12-17T17:56:48.119Z,100.00
2022-12-17T17:59:19.113Z,100.00
2022-12-17T18:01:49.469Z,100.00
2022-12-17T18:04:20.006Z,100.00
2022-12-17T18:07:16.116Z,100.00
2022-12-17T18:09:34.167Z,100.00
2022-12-17T18:12:21.809Z,100.00
2022-12-17T18:15:12.483Z,100.00
2022-12-17T18:17:35.134Z,100.00
2022-12-17T18:20:01.625Z,100.00
2022-12-17T18:22:28.965Z,100.00
2022-12-17T18:24:55.515Z,100.00
2022-12-17T18:27:22.156Z,100.00
2022-12-17T18:29:48.633Z,100.00
2022-12-17T18:32:15.137Z,100.00
2022-12-17T18:34:42.012Z,100.00
2022-12-17T18:37:08.547Z,100.00
2022-12-17T18:39:35.053Z,100.00
2022-12-17T18:42:20.243Z,100.00
2022-12-17T18:44:46.694Z,100.00
2022-12-17T18:47:13.322Z,100.00
2022-12-17T18:49:39.917Z,100.00
2022-12-17T18:52:09.361Z,100.00
2022-12-17T18:54:39.686Z,100.00
2022-12-17T18:57:06.165Z,100.00
2022-12-17T18:59:32.685Z,100.00
2022-12-17T19:01:59.371Z,100.00
2022-12-17T19:04:26.912Z,100.00
2022-12-17T19:06:54.242Z,100.00
2022-12-17T19:09:35.478Z,100.00
2022-12-17T19:12:03.192Z,100.00
2022-12-17T19:14:29.680Z,100.00
2022-12-17T19:16:57.915Z,100.00
2022-12-17T19:19:25.370Z,100.00
2022-12-17T19:21:54.848Z,100.00
2022-12-17T19:24:22.156Z,100.00
2022-12-17T19:26:49.744Z,100.00
2022-12-17T19:29:17.596Z,100.00
2022-12-17T19:31:44.408Z,100.00
2022-12-17T19:34:13.332Z,100.00
2022-12-17T19:36:40.650Z,100.00
2022-12-17T19:39:08.817Z,100.00
2022-12-17T19:41:35.720Z,100.00
2022-12-17T19:44:05.235Z,100.00
2022-12-17T19:46:33.626Z,100.00
2022-12-17T19:49:00.521Z,100.00
2022-12-17T19:51:29.576Z,100.00
2022-12-17T19:53:56.586Z,100.00
2022-12-17T19:56:22.999Z,100.00
2022-12-17T19:58:52.582Z,100.00
2022-12-17T20:01:24.809Z,100.00
2022-12-17T20:03:52.693Z,100.00
2022-12-17T20:06:22.256Z,100.00
2022-12-17T20:08:49.348Z,100.00
2022-12-17T20:11:32.882Z,100.00
2022-12-17T20:14:11.450Z,100.00
2022-12-17T20:16:40.580Z,100.00
2022-12-17T20:19:10.769Z,100.00
2022-12-17T20:21:37.519Z,100.00
2022-12-17T20:24:04.381Z,100.00
2022-12-17T20:26:31.539Z,100.00
2022-12-17T20:28:59.202Z,100.00
2022-12-17T20:31:27.373Z,100.00
2022-12-17T20:33:53.963Z,100.00
2022-12-17T20:36:21.591Z,100.00
2022-12-17T20:38:48.239Z,100.00
2022-12-17T20:41:21.484Z,100.00
2022-12-17T20:43:49.577Z,100.00
2022-12-17T20:46:17.061Z,100.00
2022-12-17T20:48:44.548Z,100.00
2022-12-17T20:51:23.353Z,100.00
2022-12-17T20:53:50.784Z,100.00
2022-12-17T20:56:21.114Z,100.00
2022-12-17T20:58:48.150Z,100.00
2022-12-17T21:01:21.549Z,100.00
2022-12-17T21:03:49.856Z,100.00
2022-12-17T21:06:17.357Z,100.00
2022-12-17T21:08:50.157Z,100.00
2022-12-17T21:11:22.226Z,100.00
2022-12-17T21:13:48.854Z,100.00
2022-12-17T21:16:27.098Z,100.00
2022-12-17T21:18:58.130Z,100.00
2022-12-17T21:21:28.410Z,100.00
2022-12-17T21:23:55.942Z,100.00
2022-12-17T21:26:25.519Z,100.00
2022-12-17T21:29:00.836Z,100.00
2022-12-17T21:31:31.296Z,100.00
2022-12-17T21:34:00.094Z,100.00
2022-12-17T21:36:28.912Z,100.00
2022-12-17T21:38:55.686Z,100.00
2022-12-17T21:41:25.874Z,100.00
2022-12-17T21:44:01.308Z,100.00
2022-12-17T21:46:29.191Z,100.00
2022-12-17T21:49:00.375Z,100.00
2022-12-17T21:51:28.139Z,100.00
2022-12-17T21:53:56.748Z,100.00
2022-12-17T21:56:24.084Z,100.00
2022-12-17T21:58:56.580Z,100.00
2022-12-17T22:01:25.894Z,100.00
2022-12-17T22:03:54.588Z,100.00
2022-12-17T22:06:26.403Z,100.00
2022-12-17T22:09:07.147Z,100.00
2022-12-17T22:11:40.217Z,100.00
2022-12-17T22:14:12.720Z,100.00
2022-12-17T22:16:47.188Z,100.00
2022-12-17T22:19:15.208Z,100.00
2022-12-17T22:21:44.007Z,100.00
2022-12-17T22:24:15.955Z,100.00
2022-12-17T22:26:42.982Z,100.00
2022-12-17T22:29:09.617Z,100.00
2022-12-17T22:31:54.824Z,100.00
2022-12-17T22:35:12.747Z,100.00
2022-12-17T22:40:31.834Z,100.00
2022-12-17T22:44:15.746Z,100.00
2022-12-17T22:44:41.009Z,100.00
2022-12-17T22:45:46.864Z,100.00
2022-12-17T22:48:14.957Z,100.00
2022-12-17T22:51:03.547Z,100.00
2022-12-17T22:53:29.401Z,100.00
2022-12-17T22:56:13.428Z,100.00
2022-12-17T22:58:46.995Z,100.00
2022-12-17T23:01:16.961Z,100.00
2022-12-17T23:03:47.754Z,100.00
2022-12-17T23:06:17.588Z,100.00
2022-12-17T23:08:44.995Z,100.00
2022-12-17T23:11:14.925Z,100.00
2022-12-17T23:13:41.896Z,100.00
2022-12-17T23:16:11.391Z,100.00
2022-12-17T23:18:37.879Z,100.00
2022-12-17T23:21:12.062Z,100.00
2022-12-17T23:23:39.530Z,100.00
2022-12-17T23:26:13.366Z,100.00
2022-12-17T23:28:40.372Z,100.00
2022-12-17T23:31:26.965Z,100.00
2022-12-17T23:33:53.537Z,100.00
2022-12-17T23:36:22.211Z,100.00
2022-12-17T23:38:50.194Z,100.00
2022-12-17T23:41:20.174Z,100.00
2022-12-17T23:43:48.237Z,100.00
2022-12-17T23:46:16.012Z,100.00
2022-12-17T23:48:45.796Z,100.00
2022-12-17T23:51:14.405Z,100.00
2022-12-17T23:53:41.667Z,100.00
2022-12-17T23:56:15.186Z,100.00
2022-12-17T23:58:43.436Z,100.00
